This is the latest recevied weather packets stored in our database for station/object HS5AU-13. If no packets are shown the sender has not sent any weather packets the latest 1 day(s).
| Time | Temp. | Humidity | Pressure | Rain* | Wind** | Luminosity | Snow |
|---|---|---|---|---|---|---|---|
| 1788638107 | 23.33° C | 97% | 1002.4 hPa | 0 mm | - | 2 W/m² | - |
| 1788637507 | 23.33° C | 98% | 1002.4 hPa | 0 mm | - | 2 W/m² | - |
| 1788636907 | 23.89° C | 98% | 1002.4 hPa | 0 mm | - | 2 W/m² | - |
| 1788636307 | 23.89° C | 99% | 1002.3 hPa | 0 mm | - | 2 W/m² | - |
| 1788635707 | 23.89° C | 98% | 1002.5 hPa | 0 mm | - | 2 W/m² | - |
| 1788635107 | 23.89° C | 98% | 1002.7 hPa | 0 mm | - | 2 W/m² | - |
| 1788634507 | 23.89° C | 98% | 1002.8 hPa | 0 mm | - | 2 W/m² | - |
| 1788633907 | 23.89° C | 97% | 1003 hPa | 0 mm | - | 2 W/m² | - |
| 1788633307 | 24.44° C | 94% | 1003.9 hPa | 0 mm | - | 2 W/m² | - |
| 1788632707 | 24.44° C | 93% | 1004.8 hPa | 0 mm | - | 2 W/m² | - |
| 1788632107 | 24.44° C | 91% | 1005.7 hPa | 0 mm | - | 2 W/m² | - |
| 1788631507 | 24.44° C | 88% | 1006.6 hPa | 0 mm | - | 2 W/m² | - |
| 1788630907 | 24.44° C | 87% | 1007.1 hPa | 0 mm | - | 2 W/m² | - |
| 1788630307 | 24.44° C | 86% | 1007.2 hPa | 0 mm | - | 2 W/m² | - |
| 1788629707 | 24.44° C | 87% | 1007.3 hPa | 0 mm | - | 2 W/m² | - |
| 1788629107 | 24.44° C | 86% | 1007.4 hPa | 0 mm | - | 2 W/m² | - |
| 1788628507 | 24.44° C | 86% | 1007.6 hPa | 0 mm | - | 2 W/m² | - |
| 1788627907 | 25° C | 84% | 1008 hPa | 0 mm | - | 2 W/m² | - |
| 1788627307 | 25° C | 84% | 1008 hPa | 0 mm | - | 2 W/m² | - |
| 1788626707 | 25° C | 83% | 1008.2 hPa | 0 mm | - | 2 W/m² | - |
| 1788626107 | 25° C | 83% | 1008.3 hPa | 0 mm | - | 2 W/m² | - |
| 1788625507 | 25° C | 82% | 1008.4 hPa | 0 mm | - | 2 W/m² | - |
| 1788624907 | 25° C | 82% | 1008.4 hPa | 0 mm | - | 2 W/m² | - |
| 1788624307 | 25° C | 83% | 1008.2 hPa | 0 mm | - | 2 W/m² | - |
| 1788623707 | 25° C | 85% | 1008.2 hPa | 0 mm | - | 2 W/m² | - |
* Rain latest hour (hover to see other rain measurements)
** Current wind speed in m/s (hover to see current wind gust speed)